createdAt,value
2019-03-30T00:01:01.237Z,10.30
2019-03-30T00:02:08.026Z,10.13
2019-03-30T00:03:12.274Z,10.70
2019-03-30T00:04:16.449Z,10.60
2019-03-30T00:05:20.630Z,10.80
2019-03-30T00:06:25.211Z,10.68
2019-03-30T00:07:29.454Z,10.65
2019-03-30T00:08:33.704Z,10.70
2019-03-30T00:09:37.886Z,10.75
2019-03-30T00:10:42.062Z,10.70
2019-03-30T00:11:46.354Z,10.85
2019-03-30T00:12:50.540Z,11.45
2019-03-30T00:13:54.746Z,11.10
2019-03-30T00:14:58.993Z,11.43
2019-03-30T00:16:03.271Z,11.75
2019-03-30T00:17:07.475Z,10.80
2019-03-30T00:18:11.660Z,10.23
2019-03-30T00:19:15.874Z,10.90
2019-03-30T00:20:20.047Z,9.93
2019-03-30T00:21:24.226Z,10.80
2019-03-30T00:22:28.403Z,11.35
2019-03-30T00:23:32.651Z,11.25
2019-03-30T00:24:37.814Z,11.33
2019-03-30T00:25:42.021Z,10.13
2019-03-30T00:26:46.225Z,11.33
2019-03-30T00:27:50.404Z,10.63
2019-03-30T00:28:54.602Z,10.48
2019-03-30T00:29:58.850Z,10.90
2019-03-30T00:31:03.099Z,9.98
2019-03-30T00:32:07.539Z,10.75
2019-03-30T00:33:12.935Z,10.73
2019-03-30T00:34:17.115Z,11.63
2019-03-30T00:35:21.297Z,10.03
2019-03-30T00:36:25.509Z,10.98
2019-03-30T00:37:29.755Z,11.10
2019-03-30T00:38:33.935Z,10.53
2019-03-30T00:39:39.254Z,12.13
2019-03-30T00:40:43.444Z,11.22
2019-03-30T00:41:47.727Z,11.22
2019-03-30T00:42:52.846Z,11.63
2019-03-30T00:43:57.068Z,11.28
2019-03-30T00:45:01.245Z,11.10
2019-03-30T00:46:05.495Z,11.22
2019-03-30T00:47:09.750Z,11.43
2019-03-30T00:48:13.931Z,11.37
2019-03-30T00:49:18.122Z,10.77
2019-03-30T00:50:22.370Z,11.78
2019-03-30T00:51:26.550Z,11.10
2019-03-30T00:52:30.757Z,11.65
2019-03-30T00:53:34.934Z,11.95
2019-03-30T00:54:39.259Z,11.18
2019-03-30T00:55:44.534Z,10.20
2019-03-30T00:56:48.709Z,9.73
2019-03-30T00:57:53.147Z,10.32
2019-03-30T00:58:57.689Z,10.93
2019-03-30T01:00:01.871Z,11.12
2019-03-30T01:01:06.119Z,10.95
2019-03-30T01:02:10.363Z,10.13
2019-03-30T01:03:14.615Z,11.47
2019-03-30T01:04:18.966Z,11.23
2019-03-30T01:05:23.153Z,11.70
2019-03-30T01:06:27.339Z,11.08
2019-03-30T01:07:31.518Z,10.53
2019-03-30T01:08:35.772Z,11.85
2019-03-30T01:09:40.001Z,10.88
2019-03-30T01:10:44.178Z,10.88
2019-03-30T01:11:48.628Z,11.22
2019-03-30T01:12:52.807Z,10.72
2019-03-30T01:13:57.056Z,11.00
2019-03-30T01:15:01.299Z,12.50
2019-03-30T01:16:05.544Z,11.10
2019-03-30T01:17:10.003Z,10.90
2019-03-30T01:18:14.184Z,10.97
2019-03-30T01:19:21.415Z,10.93
2019-03-30T01:20:25.621Z,11.73
2019-03-30T01:21:29.803Z,11.43
2019-03-30T01:22:33.984Z,12.15
2019-03-30T01:23:38.162Z,11.95
2019-03-30T01:24:42.419Z,11.28
2019-03-30T01:25:47.177Z,10.82
2019-03-30T01:26:51.430Z,11.43
2019-03-30T01:27:55.618Z,11.30
2019-03-30T01:28:59.796Z,11.30
2019-03-30T01:30:04.647Z,12.03
2019-03-30T01:31:09.054Z,10.82
2019-03-30T01:32:13.199Z,11.03
2019-03-30T01:33:17.382Z,11.53
2019-03-30T01:34:21.566Z,11.27
2019-03-30T01:35:25.874Z,11.73
2019-03-30T01:36:30.248Z,11.50
2019-03-30T01:37:34.540Z,12.13
2019-03-30T01:38:38.731Z,11.05
2019-03-30T01:39:42.930Z,11.12
2019-03-30T01:40:47.311Z,11.25
2019-03-30T01:41:51.615Z,11.38
2019-03-30T01:42:55.818Z,11.10
2019-03-30T01:43:59.978Z,11.00
2019-03-30T01:45:09.299Z,11.84
2019-03-30T01:46:13.689Z,11.50
2019-03-30T01:47:17.955Z,10.98
2019-03-30T01:48:22.135Z,11.47
2019-03-30T01:49:26.331Z,11.50
2019-03-30T01:50:30.537Z,11.35
2019-03-30T01:51:34.763Z,13.18
2019-03-30T01:52:39.081Z,11.48
2019-03-30T01:53:43.232Z,11.48
2019-03-30T01:54:47.411Z,11.70
2019-03-30T01:55:51.689Z,11.75
2019-03-30T01:56:55.966Z,11.33
2019-03-30T01:58:00.466Z,11.22
2019-03-30T01:59:04.814Z,10.98
2019-03-30T02:00:10.335Z,11.25
2019-03-30T02:01:14.594Z,11.17
2019-03-30T02:02:18.868Z,12.57
2019-03-30T02:03:23.060Z,11.57
2019-03-30T02:04:27.277Z,11.73
2019-03-30T02:05:31.481Z,11.08
2019-03-30T02:06:35.667Z,10.93
2019-03-30T02:07:39.958Z,11.22
2019-03-30T02:08:44.205Z,10.95
2019-03-30T02:09:48.440Z,11.33
2019-03-30T02:10:53.023Z,11.33
2019-03-30T02:11:57.241Z,11.85
2019-03-30T02:13:01.422Z,11.95
2019-03-30T02:14:05.615Z,11.18
2019-03-30T02:15:09.898Z,11.63
2019-03-30T02:16:14.459Z,11.23
2019-03-30T02:17:20.145Z,12.07
2019-03-30T02:18:24.530Z,11.05
2019-03-30T02:19:28.707Z,11.25
2019-03-30T02:20:43.384Z,11.08
2019-03-30T02:21:47.968Z,11.60
2019-03-30T02:22:52.164Z,11.55
2019-03-30T02:23:56.384Z,11.65
2019-03-30T02:25:00.552Z,12.15
2019-03-30T02:26:04.810Z,11.90
2019-03-30T02:27:09.136Z,12.05
2019-03-30T02:28:13.315Z,11.70
2019-03-30T02:29:17.533Z,11.60
2019-03-30T02:30:21.685Z,11.57
2019-03-30T02:31:25.867Z,11.75
2019-03-30T02:32:30.144Z,12.30
2019-03-30T02:33:34.326Z,11.35
2019-03-30T02:34:38.555Z,12.03
2019-03-30T02:35:42.755Z,11.95
2019-03-30T02:36:46.966Z,11.18
2019-03-30T02:37:51.145Z,11.95
2019-03-30T02:38:55.397Z,12.25
2019-03-30T02:39:59.645Z,11.43
2019-03-30T02:41:04.603Z,11.90
2019-03-30T02:42:08.805Z,10.78
2019-03-30T02:43:13.033Z,11.27
2019-03-30T02:44:17.208Z,11.33
2019-03-30T02:45:21.391Z,11.00
2019-03-30T02:46:25.611Z,11.63
2019-03-30T02:47:29.794Z,11.48
2019-03-30T02:48:33.976Z,12.43
2019-03-30T02:49:38.156Z,11.83
2019-03-30T02:50:50.021Z,11.53
2019-03-30T02:51:48.442Z,11.33
2019-03-30T02:52:52.682Z,12.05
2019-03-30T02:53:57.079Z,11.43
2019-03-30T02:55:01.334Z,11.75
2019-03-30T02:56:05.636Z,11.88
2019-03-30T02:57:09.930Z,11.57
2019-03-30T02:58:14.100Z,10.57
2019-03-30T02:59:18.340Z,11.05
2019-03-30T03:00:22.519Z,12.63
2019-03-30T03:01:26.752Z,12.18
2019-03-30T03:02:30.935Z,11.65
2019-03-30T03:03:35.187Z,11.80
2019-03-30T03:04:39.413Z,12.20
2019-03-30T03:05:43.590Z,12.03
2019-03-30T03:06:47.816Z,11.10
2019-03-30T03:07:52.101Z,11.00
2019-03-30T03:08:57.969Z,11.03
2019-03-30T03:10:02.356Z,11.38
2019-03-30T03:11:06.538Z,10.50
2019-03-30T03:12:10.798Z,11.03
2019-03-30T03:13:15.220Z,11.97
2019-03-30T03:14:19.343Z,11.03
2019-03-30T03:15:23.692Z,11.50
2019-03-30T03:16:27.976Z,10.72
2019-03-30T03:17:32.177Z,11.18
2019-03-30T03:18:36.344Z,11.53
2019-03-30T03:19:40.525Z,12.85
2019-03-30T03:20:44.729Z,12.47
2019-03-30T03:21:48.946Z,12.23
2019-03-30T03:22:53.093Z,11.45
2019-03-30T03:23:57.440Z,11.75
2019-03-30T03:25:01.724Z,12.17
2019-03-30T03:26:06.025Z,12.13
2019-03-30T03:27:10.203Z,12.40
2019-03-30T03:28:14.452Z,11.87
2019-03-30T03:29:18.629Z,11.97
2019-03-30T03:30:22.823Z,10.77
2019-03-30T03:31:27.069Z,11.05
2019-03-30T03:32:31.320Z,11.85
2019-03-30T03:33:35.593Z,11.40
2019-03-30T03:34:39.799Z,11.73
2019-03-30T03:35:45.646Z,11.22
2019-03-30T03:36:49.823Z,11.33
2019-03-30T03:37:54.009Z,11.50
2019-03-30T03:38:58.216Z,11.25
2019-03-30T03:40:02.398Z,11.75
2019-03-30T03:41:06.668Z,12.68
2019-03-30T03:42:10.969Z,11.93
2019-03-30T03:43:15.172Z,11.63
2019-03-30T03:44:19.362Z,12.17
2019-03-30T03:45:23.563Z,12.03
2019-03-30T03:46:27.854Z,11.00
2019-03-30T03:47:32.031Z,12.20
2019-03-30T03:48:36.334Z,10.95
2019-03-30T03:49:40.497Z,11.83
2019-03-30T03:50:45.752Z,12.35
2019-03-30T03:51:50.036Z,11.93
2019-03-30T03:52:54.226Z,10.38
2019-03-30T03:53:58.427Z,11.83
2019-03-30T03:55:02.783Z,11.48
2019-03-30T03:56:06.963Z,11.22
2019-03-30T03:57:11.224Z,10.80
2019-03-30T03:58:15.972Z,11.23
2019-03-30T03:59:20.189Z,11.30
2019-03-30T04:00:24.441Z,11.75
2019-03-30T04:01:28.693Z,11.45
2019-03-30T04:02:35.904Z,11.25
2019-03-30T04:03:40.119Z,11.53
2019-03-30T04:04:47.678Z,11.20
2019-03-30T04:05:51.276Z,12.13
2019-03-30T04:06:57.086Z,12.30
2019-03-30T04:08:01.508Z,11.22
2019-03-30T04:09:06.478Z,11.75
2019-03-30T04:10:10.646Z,11.90
2019-03-30T04:11:14.877Z,11.15
2019-03-30T04:12:19.332Z,11.80
2019-03-30T04:13:23.595Z,10.98
2019-03-30T04:14:27.901Z,11.15
2019-03-30T04:15:32.359Z,10.70
2019-03-30T04:16:36.552Z,12.47
2019-03-30T04:17:41.216Z,11.85
2019-03-30T04:18:48.029Z,11.93
2019-03-30T04:19:51.355Z,11.20
2019-03-30T04:20:55.607Z,12.40
2019-03-30T04:21:59.784Z,12.43
2019-03-30T04:23:04.068Z,13.22
2019-03-30T04:24:08.251Z,12.00
2019-03-30T04:25:14.070Z,12.67
2019-03-30T04:26:18.275Z,12.00
2019-03-30T04:27:22.476Z,11.23
2019-03-30T04:28:26.768Z,12.25
2019-03-30T04:29:30.947Z,11.53
2019-03-30T04:30:35.138Z,12.10
2019-03-30T04:31:40.456Z,12.95
2019-03-30T04:32:44.648Z,11.78
2019-03-30T04:33:48.853Z,12.00
2019-03-30T04:34:53.032Z,12.20
2019-03-30T04:35:57.460Z,11.53
2019-03-30T04:37:01.640Z,12.15
2019-03-30T04:38:05.822Z,12.47
2019-03-30T04:39:10.079Z,12.60
2019-03-30T04:40:14.262Z,11.43
2019-03-30T04:41:18.520Z,11.93
2019-03-30T04:42:22.702Z,11.47
2019-03-30T04:43:26.939Z,12.23
2019-03-30T04:44:31.306Z,11.63
2019-03-30T04:45:37.091Z,12.53
2019-03-30T04:46:41.275Z,12.23
2019-03-30T04:47:45.442Z,11.45
2019-03-30T04:48:49.644Z,11.88
2019-03-30T04:49:53.860Z,12.07
2019-03-30T04:50:59.007Z,12.40
2019-03-30T04:52:03.218Z,10.98
2019-03-30T04:53:07.389Z,11.60
2019-03-30T04:54:11.633Z,11.07
2019-03-30T04:55:17.709Z,10.97
2019-03-30T04:56:21.852Z,11.00
2019-03-30T04:57:26.055Z,10.90
2019-03-30T04:58:30.228Z,11.65
2019-03-30T04:59:34.411Z,11.97
2019-03-30T05:00:39.539Z,11.68
2019-03-30T05:01:43.773Z,11.70
2019-03-30T05:02:47.986Z,11.78
2019-03-30T05:03:52.184Z,11.85
2019-03-30T05:04:56.361Z,10.45
2019-03-30T05:06:00.970Z,11.57
2019-03-30T05:07:05.153Z,12.05
2019-03-30T05:08:09.329Z,11.63
2019-03-30T05:09:13.505Z,11.70
2019-03-30T05:10:17.755Z,12.10
2019-03-30T05:11:22.030Z,13.37
2019-03-30T05:12:26.352Z,13.10
2019-03-30T05:13:30.586Z,12.88
2019-03-30T05:14:34.770Z,12.37
2019-03-30T05:15:38.985Z,13.47
2019-03-30T05:16:47.053Z,11.97
2019-03-30T05:17:52.299Z,12.43
2019-03-30T05:18:56.565Z,11.85
2019-03-30T05:20:00.774Z,12.55
2019-03-30T05:21:04.994Z,13.15
2019-03-30T05:22:13.537Z,12.87
2019-03-30T05:23:15.154Z,12.78
2019-03-30T05:24:19.803Z,13.20
2019-03-30T05:25:24.012Z,12.68
2019-03-30T05:26:28.176Z,11.63
2019-03-30T05:27:32.359Z,12.07
2019-03-30T05:28:36.572Z,13.05
2019-03-30T05:29:40.782Z,13.55
2019-03-30T05:30:45.033Z,12.58
2019-03-30T05:31:49.211Z,13.13
2019-03-30T05:33:05.027Z,13.05
2019-03-30T05:33:59.283Z,13.22
2019-03-30T05:35:06.126Z,13.68
2019-03-30T05:36:10.370Z,12.30
2019-03-30T05:37:14.551Z,12.90
2019-03-30T05:38:18.730Z,13.10
2019-03-30T05:39:23.002Z,12.53
2019-03-30T05:40:27.290Z,12.63
2019-03-30T05:41:31.470Z,11.60
2019-03-30T05:42:35.686Z,13.05
2019-03-30T05:43:39.957Z,12.05
2019-03-30T05:44:44.138Z,12.20
2019-03-30T05:45:48.337Z,12.18
2019-03-30T05:46:52.523Z,11.73
2019-03-30T05:47:56.784Z,12.37
2019-03-30T05:49:00.966Z,11.65
2019-03-30T05:50:06.420Z,13.10
2019-03-30T05:51:10.600Z,12.23
2019-03-30T05:52:25.787Z,12.93
2019-03-30T05:53:20.716Z,12.30
2019-03-30T05:54:24.987Z,12.63
2019-03-30T05:55:29.146Z,11.93
2019-03-30T05:56:33.351Z,12.68
2019-03-30T05:57:37.588Z,12.55
2019-03-30T05:58:41.878Z,12.50
2019-03-30T05:59:46.058Z,12.63
2019-03-30T06:00:50.260Z,12.82
2019-03-30T06:01:54.466Z,13.55
2019-03-30T06:02:58.771Z,12.68
2019-03-30T06:04:03.061Z,11.97
2019-03-30T06:05:07.335Z,12.95
2019-03-30T06:06:11.531Z,12.43
2019-03-30T06:07:15.821Z,11.83
2019-03-30T06:08:20.187Z,11.83
2019-03-30T06:09:24.440Z,12.68
2019-03-30T06:10:28.579Z,12.60
2019-03-30T06:11:32.800Z,12.20
2019-03-30T06:12:36.943Z,12.88
2019-03-30T06:13:41.655Z,12.15
2019-03-30T06:14:45.854Z,12.45
2019-03-30T06:15:50.065Z,12.63
2019-03-30T06:16:54.252Z,12.60
2019-03-30T06:17:58.441Z,13.53
2019-03-30T06:19:02.664Z,13.22
2019-03-30T06:20:07.017Z,13.00
2019-03-30T06:21:12.315Z,12.53
2019-03-30T06:22:18.254Z,13.40
2019-03-30T06:23:22.543Z,12.03
2019-03-30T06:24:28.807Z,12.65
2019-03-30T06:25:33.253Z,13.03
2019-03-30T06:26:37.433Z,12.98
2019-03-30T06:27:41.687Z,13.70
2019-03-30T06:28:45.879Z,13.98
2019-03-30T06:30:11.650Z,13.85
2019-03-30T06:31:15.821Z,13.08
2019-03-30T06:32:20.075Z,13.35
2019-03-30T06:33:24.300Z,12.60
2019-03-30T06:34:28.450Z,13.83
2019-03-30T06:35:32.666Z,13.45
2019-03-30T06:36:36.847Z,13.80
2019-03-30T06:37:41.058Z,13.48
2019-03-30T06:38:45.243Z,13.43
2019-03-30T06:39:49.418Z,13.98
2019-03-30T06:40:53.597Z,13.75
2019-03-30T06:41:57.903Z,14.10
2019-03-30T06:43:02.100Z,13.90
2019-03-30T06:44:06.335Z,13.65
2019-03-30T06:45:12.220Z,13.78
2019-03-30T06:46:16.518Z,13.67
2019-03-30T06:47:20.797Z,14.53
2019-03-30T06:48:25.040Z,13.20
2019-03-30T06:49:29.373Z,12.90
2019-03-30T06:50:33.771Z,13.62
2019-03-30T06:51:37.977Z,13.70
2019-03-30T06:52:56.383Z,13.08
2019-03-30T06:53:48.133Z,12.60
2019-03-30T06:54:52.497Z,12.05
2019-03-30T06:55:56.713Z,12.80
2019-03-30T06:57:00.904Z,12.95
2019-03-30T06:58:05.087Z,13.45
2019-03-30T06:59:09.266Z,12.78
2019-03-30T07:00:15.497Z,12.37
2019-03-30T07:01:19.674Z,12.60
2019-03-30T07:02:23.856Z,13.50
2019-03-30T07:03:28.034Z,12.28
2019-03-30T07:04:32.314Z,13.10
2019-03-30T07:05:38.419Z,13.75
2019-03-30T07:06:42.747Z,13.80
2019-03-30T07:07:46.926Z,15.35
2019-03-30T07:08:51.158Z,14.25
2019-03-30T07:09:55.437Z,14.95
2019-03-30T07:10:59.628Z,13.85
2019-03-30T07:12:04.673Z,15.88
2019-03-30T07:13:08.892Z,14.28
2019-03-30T07:14:13.306Z,14.33
2019-03-30T07:15:17.486Z,14.17
2019-03-30T07:16:21.936Z,14.00
2019-03-30T07:17:26.115Z,13.88
2019-03-30T07:18:30.299Z,13.62
2019-03-30T07:19:34.552Z,14.68
2019-03-30T07:20:38.735Z,14.78
2019-03-30T07:21:42.988Z,14.75
2019-03-30T07:22:47.177Z,14.40
2019-03-30T07:23:51.425Z,14.20
2019-03-30T07:24:55.709Z,13.50
2019-03-30T07:25:59.959Z,14.23
2019-03-30T07:27:04.738Z,14.30
2019-03-30T07:28:08.911Z,13.30
2019-03-30T07:29:13.086Z,15.23
2019-03-30T07:30:17.324Z,14.35
2019-03-30T07:31:21.642Z,14.53
2019-03-30T07:32:25.822Z,14.93
2019-03-30T07:33:30.075Z,14.35
2019-03-30T07:34:34.258Z,14.65
2019-03-30T07:35:38.470Z,14.70
2019-03-30T07:36:42.649Z,14.05
2019-03-30T07:37:46.831Z,14.13
2019-03-30T07:38:51.080Z,13.48
2019-03-30T07:39:55.326Z,14.68
2019-03-30T07:40:59.668Z,15.45
2019-03-30T07:42:04.423Z,14.24
2019-03-30T07:43:08.606Z,14.80
2019-03-30T07:44:12.906Z,14.83
2019-03-30T07:45:17.111Z,14.23
2019-03-30T07:46:21.382Z,14.00
2019-03-30T07:47:25.558Z,13.63
2019-03-30T07:48:29.769Z,15.20
2019-03-30T07:49:34.017Z,13.85
2019-03-30T07:50:38.274Z,15.60
2019-03-30T07:51:42.470Z,15.35
2019-03-30T07:52:47.067Z,14.63
2019-03-30T07:53:51.323Z,14.85
2019-03-30T07:54:55.510Z,14.85
2019-03-30T07:56:08.153Z,14.58
2019-03-30T07:57:16.513Z,15.48
2019-03-30T07:58:12.499Z,15.33
2019-03-30T07:59:16.721Z,15.33
2019-03-30T08:00:20.906Z,15.10
2019-03-30T08:01:25.222Z,14.85
2019-03-30T08:02:29.475Z,15.63
2019-03-30T08:03:33.770Z,16.60
2019-03-30T08:04:38.062Z,15.10
2019-03-30T08:05:45.172Z,15.60
2019-03-30T08:06:49.356Z,15.15
2019-03-30T08:07:53.537Z,13.98
2019-03-30T08:08:57.854Z,15.45
2019-03-30T08:10:02.133Z,14.63
2019-03-30T08:11:06.642Z,14.93
2019-03-30T08:12:10.848Z,14.17
2019-03-30T08:13:15.026Z,14.30
2019-03-30T08:14:19.283Z,15.07
2019-03-30T08:15:23.554Z,14.40
2019-03-30T08:16:27.848Z,14.65
2019-03-30T08:17:32.027Z,15.23
2019-03-30T08:18:36.280Z,15.08
2019-03-30T08:19:40.467Z,15.48
2019-03-30T08:20:44.655Z,14.45
2019-03-30T08:21:48.904Z,15.43
2019-03-30T08:22:53.096Z,15.65
2019-03-30T08:23:58.961Z,14.90
2019-03-30T08:25:04.049Z,15.18
2019-03-30T08:26:08.240Z,14.45
2019-03-30T08:27:13.119Z,14.50
2019-03-30T08:28:17.299Z,14.60
2019-03-30T08:29:21.577Z,14.70
2019-03-30T08:30:25.830Z,14.20
2019-03-30T08:31:30.079Z,15.13
2019-03-30T08:32:34.330Z,15.10
2019-03-30T08:33:38.528Z,14.98
2019-03-30T08:34:42.884Z,15.53
2019-03-30T08:35:47.139Z,15.28
2019-03-30T08:36:51.391Z,15.13
2019-03-30T08:37:56.654Z,14.50
2019-03-30T08:39:00.803Z,15.32
2019-03-30T08:40:06.454Z,15.00
2019-03-30T08:41:10.703Z,15.83
2019-03-30T08:42:15.058Z,15.67
2019-03-30T08:43:19.342Z,15.63
2019-03-30T08:44:23.809Z,15.28
2019-03-30T08:45:28.088Z,14.75
2019-03-30T08:46:32.270Z,15.40
2019-03-30T08:47:37.593Z,15.63
2019-03-30T08:48:41.828Z,16.60
2019-03-30T08:49:46.018Z,15.43
2019-03-30T08:50:50.552Z,15.50
2019-03-30T08:51:54.751Z,15.68
2019-03-30T08:52:58.931Z,15.90
2019-03-30T08:54:03.432Z,14.85
2019-03-30T08:55:08.293Z,15.23
2019-03-30T08:56:14.217Z,15.30
2019-03-30T08:57:18.430Z,14.73
2019-03-30T08:58:23.042Z,14.77
2019-03-30T08:59:27.507Z,15.18
2019-03-30T09:00:40.938Z,15.48
2019-03-30T09:01:45.609Z,15.03
2019-03-30T09:02:49.792Z,15.60
2019-03-30T09:03:53.980Z,15.15
2019-03-30T09:04:59.708Z,15.83
2019-03-30T09:06:04.787Z,14.60
2019-03-30T09:07:09.026Z,15.18
2019-03-30T09:08:13.202Z,15.50
2019-03-30T09:09:17.388Z,15.63
2019-03-30T09:10:21.592Z,15.13
2019-03-30T09:11:25.822Z,15.75
2019-03-30T09:12:30.224Z,14.63
2019-03-30T09:13:34.402Z,15.43
2019-03-30T09:14:39.475Z,14.58
2019-03-30T09:15:43.969Z,13.85
2019-03-30T09:16:48.381Z,15.65
2019-03-30T09:17:52.586Z,13.80
2019-03-30T09:18:56.959Z,15.38
2019-03-30T09:20:01.142Z,14.95
2019-03-30T09:21:05.654Z,15.18
2019-03-30T09:22:09.911Z,13.77
2019-03-30T09:23:15.101Z,14.70
2019-03-30T09:24:19.277Z,15.83
2019-03-30T09:25:23.459Z,14.60
2019-03-30T09:26:27.718Z,14.60
2019-03-30T09:27:31.960Z,14.33
2019-03-30T09:28:36.201Z,14.60
2019-03-30T09:29:40.613Z,14.93
2019-03-30T09:30:44.791Z,14.13
2019-03-30T09:31:48.973Z,12.95
2019-03-30T09:32:53.152Z,14.83
2019-03-30T09:33:57.513Z,14.15
2019-03-30T09:35:01.693Z,14.65
2019-03-30T09:36:05.942Z,14.80
2019-03-30T09:37:10.123Z,15.67
2019-03-30T09:38:14.960Z,14.35
2019-03-30T09:39:19.328Z,14.90
2019-03-30T09:40:23.507Z,13.78
2019-03-30T09:41:27.758Z,13.30
2019-03-30T09:42:31.939Z,15.15
2019-03-30T09:43:37.652Z,13.58
2019-03-30T09:44:42.094Z,14.20
2019-03-30T09:45:46.341Z,13.80
2019-03-30T09:46:50.597Z,14.65
2019-03-30T09:47:54.806Z,14.65
2019-03-30T09:48:58.988Z,13.90
2019-03-30T09:50:04.640Z,14.60
2019-03-30T09:51:08.904Z,14.58
2019-03-30T09:52:13.173Z,14.45
2019-03-30T09:53:17.358Z,13.90
2019-03-30T09:54:24.012Z,14.97
2019-03-30T09:55:27.696Z,13.95
2019-03-30T09:56:31.977Z,14.18
2019-03-30T09:57:36.158Z,14.93
2019-03-30T09:58:40.410Z,14.23
2019-03-30T09:59:44.662Z,13.80
2019-03-30T10:00:50.476Z,15.23
2019-03-30T10:01:55.658Z,14.05
2019-03-30T10:02:59.842Z,14.30
2019-03-30T10:04:04.948Z,13.78
2019-03-30T10:05:09.125Z,13.30
2019-03-30T10:06:14.942Z,13.77
2019-03-30T10:07:20.114Z,13.60
2019-03-30T10:08:24.603Z,14.25
2019-03-30T10:09:28.780Z,14.73
2019-03-30T10:10:33.011Z,14.30
2019-03-30T10:11:37.191Z,13.48
2019-03-30T10:12:41.446Z,13.60
2019-03-30T10:13:45.722Z,13.60
2019-03-30T10:14:49.914Z,14.53
2019-03-30T10:15:54.143Z,13.43
2019-03-30T10:16:58.366Z,13.93
2019-03-30T10:18:02.583Z,14.20
2019-03-30T10:19:06.835Z,13.38
2019-03-30T10:20:11.089Z,13.63
2019-03-30T10:21:15.269Z,14.13
2019-03-30T10:22:19.450Z,13.58
2019-03-30T10:23:23.667Z,14.00
2019-03-30T10:24:37.978Z,14.03
2019-03-30T10:25:33.826Z,14.85
2019-03-30T10:26:38.005Z,14.58
2019-03-30T10:27:42.194Z,14.18
2019-03-30T10:28:47.185Z,13.57
2019-03-30T10:29:51.474Z,14.38
2019-03-30T10:30:56.718Z,14.10
2019-03-30T10:32:00.920Z,13.68
2019-03-30T10:33:05.089Z,14.07
2019-03-30T10:34:11.052Z,13.10
2019-03-30T10:35:16.154Z,14.37
2019-03-30T10:36:20.366Z,13.15
2019-03-30T10:37:24.551Z,13.90
2019-03-30T10:38:28.800Z,14.20
2019-03-30T10:39:33.055Z,13.93
2019-03-30T10:40:37.617Z,13.93
2019-03-30T10:41:41.944Z,13.20
2019-03-30T10:42:46.120Z,14.20
2019-03-30T10:43:50.312Z,13.75
2019-03-30T10:44:54.567Z,13.05
2019-03-30T10:45:59.103Z,12.78
2019-03-30T10:47:03.299Z,13.75
2019-03-30T10:48:07.554Z,12.60
2019-03-30T10:49:11.803Z,12.73
2019-03-30T10:50:15.986Z,13.37
2019-03-30T10:51:20.281Z,13.97
2019-03-30T10:52:24.466Z,13.58
2019-03-30T10:53:28.740Z,12.93
2019-03-30T10:54:33.035Z,14.27
2019-03-30T10:55:37.523Z,13.70
2019-03-30T10:56:41.862Z,13.40
2019-03-30T10:57:46.043Z,13.68
2019-03-30T10:58:50.246Z,13.45
2019-03-30T10:59:56.119Z,14.07
2019-03-30T11:01:00.317Z,14.23
2019-03-30T11:02:04.666Z,11.88
2019-03-30T11:03:09.001Z,13.05
2019-03-30T11:04:13.174Z,13.00
2019-03-30T11:05:17.440Z,13.23
2019-03-30T11:06:21.623Z,13.00
2019-03-30T11:07:26.274Z,14.60
2019-03-30T11:08:30.524Z,13.58
2019-03-30T11:09:34.798Z,12.60
2019-03-30T11:10:39.026Z,13.58
2019-03-30T11:11:43.275Z,13.50
2019-03-30T11:12:47.534Z,13.03
2019-03-30T11:13:51.716Z,11.93
2019-03-30T11:14:56.002Z,13.43
2019-03-30T11:16:00.180Z,13.57
2019-03-30T11:17:04.499Z,12.23
2019-03-30T11:18:08.729Z,13.25
2019-03-30T11:19:12.978Z,13.63
2019-03-30T11:20:17.203Z,12.67
2019-03-30T11:21:21.380Z,13.73
2019-03-30T11:22:25.565Z,13.35
2019-03-30T11:23:29.839Z,13.48
2019-03-30T11:24:34.212Z,13.13
2019-03-30T11:25:38.442Z,12.98
2019-03-30T11:26:42.637Z,12.43
2019-03-30T11:27:46.813Z,12.25
2019-03-30T11:28:52.066Z,12.58
2019-03-30T11:29:56.498Z,12.95
2019-03-30T11:31:00.674Z,12.33
2019-03-30T11:32:04.871Z,13.18
2019-03-30T11:33:09.130Z,13.78
2019-03-30T11:34:13.309Z,12.40
2019-03-30T11:35:17.713Z,12.47
2019-03-30T11:36:21.898Z,11.87
2019-03-30T11:37:26.080Z,12.75
2019-03-30T11:38:30.258Z,13.00
2019-03-30T11:39:34.509Z,12.50
2019-03-30T11:40:38.991Z,10.90
2019-03-30T11:41:43.170Z,12.98
2019-03-30T11:42:47.416Z,11.40
2019-03-30T11:43:51.597Z,11.33
2019-03-30T11:44:55.829Z,11.50
2019-03-30T11:46:00.105Z,11.97
2019-03-30T11:47:07.703Z,11.38
2019-03-30T11:48:11.898Z,11.40
2019-03-30T11:49:16.100Z,11.77
2019-03-30T11:50:20.262Z,12.67
2019-03-30T11:51:24.710Z,10.48
2019-03-30T11:52:30.366Z,10.57
2019-03-30T11:53:34.655Z,10.75
2019-03-30T11:54:38.883Z,11.18
2019-03-30T11:55:43.066Z,10.63
2019-03-30T11:56:47.630Z,11.30
2019-03-30T11:57:51.812Z,10.88
2019-03-30T11:58:56.043Z,10.07
2019-03-30T12:00:01.298Z,10.75
2019-03-30T12:01:06.724Z,10.78
2019-03-30T12:02:11.174Z,11.03
2019-03-30T12:03:15.350Z,11.10
2019-03-30T12:04:19.532Z,11.73
2019-03-30T12:05:23.752Z,10.23
2019-03-30T12:06:27.999Z,10.95
2019-03-30T12:07:32.657Z,10.48
2019-03-30T12:08:36.832Z,9.90
2019-03-30T12:09:42.706Z,9.80
2019-03-30T12:10:48.393Z,9.68
2019-03-30T12:11:52.577Z,9.85
2019-03-30T12:12:56.855Z,10.60
2019-03-30T12:14:01.035Z,11.22
2019-03-30T12:15:08.753Z,10.35
2019-03-30T12:16:14.632Z,9.87
2019-03-30T12:17:18.829Z,10.57
2019-03-30T12:18:26.274Z,9.70
2019-03-30T12:19:30.450Z,9.80
2019-03-30T12:20:34.645Z,9.35
2019-03-30T12:21:39.014Z,11.08
2019-03-30T12:22:43.275Z,10.90
2019-03-30T12:23:47.768Z,9.63
2019-03-30T12:24:51.948Z,11.25
2019-03-30T12:25:56.190Z,9.73
2019-03-30T12:27:00.369Z,9.90
2019-03-30T12:28:04.624Z,10.88
2019-03-30T12:29:08.882Z,10.38
2019-03-30T12:30:13.858Z,11.60
2019-03-30T12:31:18.210Z,11.20
2019-03-30T12:32:22.399Z,11.00
2019-03-30T12:33:26.726Z,10.80
2019-03-30T12:34:30.932Z,10.38
2019-03-30T12:35:35.376Z,10.03
2019-03-30T12:36:39.629Z,11.00
2019-03-30T12:37:43.828Z,9.55
2019-03-30T12:38:47.985Z,7.62
2019-03-30T12:39:52.189Z,7.10
2019-03-30T12:40:56.532Z,7.85
2019-03-30T12:42:00.821Z,7.90
2019-03-30T12:43:05.057Z,7.55
2019-03-30T12:44:09.277Z,8.90
2019-03-30T12:45:13.495Z,9.80
2019-03-30T12:46:20.628Z,9.90
2019-03-30T12:47:24.808Z,10.35
2019-03-30T12:48:29.059Z,10.25
2019-03-30T12:49:33.330Z,9.95
2019-03-30T12:50:37.529Z,8.83
2019-03-30T12:51:41.776Z,9.18
2019-03-30T12:52:45.958Z,8.77
2019-03-30T12:53:50.835Z,9.43
2019-03-30T12:54:56.208Z,7.85
2019-03-30T12:56:00.407Z,6.90
2019-03-30T12:57:04.821Z,6.95
2019-03-30T12:58:09.076Z,7.08
2019-03-30T12:59:13.319Z,7.20
2019-03-30T13:00:18.299Z,7.05
2019-03-30T13:01:22.517Z,7.43
2019-03-30T13:02:26.693Z,9.13
2019-03-30T13:03:30.868Z,7.62
2019-03-30T13:04:35.117Z,8.90
2019-03-30T13:05:39.382Z,8.75
2019-03-30T13:06:43.661Z,8.25
2019-03-30T13:07:47.904Z,7.97
2019-03-30T13:08:52.093Z,7.40
2019-03-30T13:09:56.417Z,8.28
2019-03-30T13:11:00.589Z,7.97
2019-03-30T13:12:05.071Z,7.72
2019-03-30T13:13:10.217Z,8.07
2019-03-30T13:14:14.397Z,7.10
2019-03-30T13:15:18.573Z,7.37
2019-03-30T13:16:26.200Z,7.70
2019-03-30T13:17:29.804Z,6.95
2019-03-30T13:18:34.105Z,7.62
2019-03-30T13:19:38.282Z,7.25
2019-03-30T13:20:42.456Z,7.25
2019-03-30T13:21:52.896Z,7.35
2019-03-30T13:22:52.505Z,7.60
2019-03-30T13:23:56.704Z,7.75
2019-03-30T13:25:00.881Z,6.58
2019-03-30T13:26:06.741Z,7.50
2019-03-30T13:27:19.817Z,7.60
2019-03-30T13:28:19.577Z,7.63
2019-03-30T13:29:26.688Z,7.35
2019-03-30T13:30:34.722Z,7.28
2019-03-30T13:31:41.662Z,7.75
2019-03-30T13:32:45.920Z,7.63
2019-03-30T13:33:50.190Z,6.95
2019-03-30T13:34:54.375Z,6.45
2019-03-30T13:35:58.636Z,7.10
2019-03-30T13:37:16.869Z,8.68
2019-03-30T13:38:21.050Z,8.10
2019-03-30T13:39:25.264Z,7.83
2019-03-30T13:40:30.473Z,7.80
2019-03-30T13:41:34.822Z,7.78
2019-03-30T13:42:39.020Z,8.00
2019-03-30T13:43:43.205Z,7.87
2019-03-30T13:44:47.388Z,7.83
2019-03-30T13:45:51.569Z,7.28
2019-03-30T13:46:55.827Z,8.05
2019-03-30T13:48:00.276Z,7.42
2019-03-30T13:49:04.870Z,7.28
2019-03-30T13:50:09.461Z,7.87
2019-03-30T13:51:14.658Z,7.20
2019-03-30T13:52:18.871Z,7.53
2019-03-30T13:53:23.044Z,7.80
2019-03-30T13:54:27.477Z,7.45